Time;durP1;ratioP1;P1;durP2;ratioP2;P2;SDS_P1;SDS_P2;PMS_P1;PMS_P2;Temp;Humidity;BMP_temperature;BMP_pressure;BME280_temperature;BME280_humidity;BME280_pressure;Samples;Min_cycle;Max_cycle;Signal;HPM_P1;HPM_P2
2021/09/16 00:00:59;;;;;;;;;;;;;;;17.01;85.85;100009.45;1705977;82;20117;-91
2021/09/16 00:03:25;;;;;;;;;;;;;;;16.93;86.25;100009.64;1722291;82;21204;-90
2021/09/16 00:05:51;;;;;;;;;;;;;;;16.85;86.48;100010.61;1716606;82;20198;-89
2021/09/16 00:08:19;;;;;;;;;;;;;;;16.85;86.76;100006.09;1716697;82;20248;-92
2021/09/16 00:10:46;;;;;;;;;;;;;;;16.83;86.59;100005.48;1718156;82;20177;-89
2021/09/16 00:13:12;;;;;;;;;;;;;;;16.82;86.60;100002.49;1716814;82;20168;-88
2021/09/16 00:15:37;;;;;;;;;;;;;;;16.84;86.57;100004.47;1717249;82;21988;-91
2021/09/16 00:18:03;;;;;;;;;;;;;;;16.84;86.53;99999.13;1721645;82;20125;-90
2021/09/16 00:20:28;;;;;;;;;;;;;;;16.84;86.39;100007.63;1718063;82;20439;-91
2021/09/16 00:22:58;;;;;;;;;;;;;;;16.81;86.62;100002.69;1714588;82;20239;-89
2021/09/16 00:25:23;;;;;;;;;;;;;;;16.81;86.52;100000.03;1718409;82;20471;-91
2021/09/16 00:27:51;;;;;;;;;;;;;;;16.81;86.44;99990.20;1715478;82;21059;-90
2021/09/16 00:30:16;;;;;;;;;;;;;;;16.80;86.33;99989.88;1717344;82;20144;-91
2021/09/16 00:32:42;;;;;;;;;;;;;;;16.79;86.37;99988.23;1722990;82;20497;-91
2021/09/16 00:35:10;;;;;;;;;;;;;;;16.74;86.59;99985.87;1715725;82;20214;-90
2021/09/16 00:37:36;;;;;;;;;;;;;;;16.75;86.55;99981.67;1719286;82;20117;-89
2021/09/16 00:40:03;;;;;;;;;;;;;;;16.78;86.40;99979.94;1719114;82;21155;-90
2021/09/16 00:42:32;;;;;;;;;;;;;;;16.72;86.32;99974.07;1724016;82;20426;-90
2021/09/16 00:45:00;;;;;;;;;;;;;;;16.73;86.60;99970.36;1721095;82;20150;-90
2021/09/16 00:47:25;;;;;;;;;;;;;;;16.75;86.51;99965.67;1725081;82;20092;-90
2021/09/16 00:49:54;;;;;;;;;;;;;;;16.75;86.56;99964.34;1722026;82;20251;-91
2021/09/16 00:52:19;;;;;;;;;;;;;;;16.78;86.29;99965.27;1719235;82;20130;-93
2021/09/16 00:54:46;;;;;;;;;;;;;;;16.80;86.18;99961.06;1721168;82;20127;-91
2021/09/16 00:57:13;;;;;;;;;;;;;;;16.76;86.22;99964.63;1717348;82;20196;-91
2021/09/16 00:59:42;;;;;;;;;;;;;;;16.80;86.08;99961.88;1723213;82;20169;-92
2021/09/16 01:02:09;;;;;;;;;;;;;;;16.79;86.05;99964.75;1715379;82;20214;-91
2021/09/16 01:04:37;;;;;;;;;;;;;;;16.76;85.95;99964.63;1703487;82;20732;-88
2021/09/16 01:07:05;;;;;;;;;;;;;;;16.78;85.95;99963.94;1719760;82;20133;-92
2021/09/16 01:09:33;;;;;;;;;;;;;;;16.75;86.02;99967.00;1719329;81;20162;-90
2021/09/16 01:12:00;;;;;;;;;;;;;;;16.72;86.08;99959.90;1718513;82;20530;-91
2021/09/16 01:14:27;;;;;;;;;;;;;;;16.70;86.33;99956.09;1719911;82;20244;-93
2021/09/16 01:16:58;;;;;;;;;;;;;;;16.64;86.19;99953.74;1720440;82;21161;-92
2021/09/16 01:19:26;;;;;;;;;;;;;;;16.65;86.29;99954.03;1719292;81;20093;-94
2021/09/16 01:21:54;;;;;;;;;;;;;;;16.66;86.25;99950.88;1700301;82;20165;-90
2021/09/16 01:24:23;;;;;;;;;;;;;;;16.62;86.42;99952.29;1710843;81;20238;-91
2021/09/16 01:26:49;;;;;;;;;;;;;;;16.60;86.53;99950.34;1724050;82;20197;-89
2021/09/16 01:29:16;;;;;;;;;;;;;;;16.61;86.50;99947.97;1715086;82;20643;-88
2021/09/16 01:31:43;;;;;;;;;;;;;;;16.57;86.51;99948.08;1717683;82;20162;-88
2021/09/16 01:34:10;;;;;;;;;;;;;;;16.49;86.88;99950.41;1721350;82;20135;-89
2021/09/16 01:36:36;;;;;;;;;;;;;;;16.48;87.11;99946.09;1718552;82;20153;-87
2021/09/16 01:39:05;;;;;;;;;;;;;;;16.43;87.21;99946.69;1716371;82;20114;-88
2021/09/16 01:41:32;;;;;;;;;;;;;;;16.46;87.35;99946.29;1718957;82;21301;-89
2021/09/16 01:43:58;;;;;;;;;;;;;;;16.47;87.29;99939.95;1718314;82;20106;-87
2021/09/16 01:46:23;;;;;;;;;;;;;;;16.50;87.12;99935.55;1721425;82;20133;-87
2021/09/16 01:48:49;;;;;;;;;;;;;;;16.47;87.19;99933.28;1721490;82;20467;-89
2021/09/16 01:51:17;;;;;;;;;;;;;;;16.48;87.26;99928.28;1720284;82;20158;-87
2021/09/16 01:53:42;;;;;;;;;;;;;;;16.54;87.14;99925.83;1720599;82;21073;-89
2021/09/16 01:56:08;;;;;;;;;;;;;;;16.54;87.00;99927.16;1719183;82;20218;-88
2021/09/16 01:58:38;;;;;;;;;;;;;;;16.52;87.07;99931.36;1718477;82;20270;-89
2021/09/16 02:01:08;;;;;;;;;;;;;;;16.55;87.08;99932.80;1719053;82;20167;-89
2021/09/16 02:03:33;;;;;;;;;;;;;;;16.53;87.14;99930.34;1714477;82;20160;-90
2021/09/16 02:05:59;;;;;;;;;;;;;;;16.55;87.17;99924.81;1721953;82;21077;-87
2021/09/16 02:08:24;;;;;;;;;;;;;;;16.56;87.25;99926.43;1717712;82;20666;-90
2021/09/16 02:10:50;;;;;;;;;;;;;;;16.56;87.40;99923.77;1724440;82;20189;-90
2021/09/16 02:13:16;;;;;;;;;;;;;;;16.45;87.80;99915.84;1703506;83;21378;-89
2021/09/16 02:15:42;;;;;;;;;;;;;;;16.36;88.46;99918.38;1720128;82;20125;-89
2021/09/16 02:18:07;;;;;;;;;;;;;;;16.28;88.92;99916.21;1715502;82;21075;-88
2021/09/16 02:20:33;;;;;;;;;;;;;;;16.26;89.17;99917.42;1698951;82;20465;-88
2021/09/16 02:22:59;;;;;;;;;;;;;;;16.24;89.39;99915.48;1711501;82;20899;-89
2021/09/16 02:25:24;;;;;;;;;;;;;;;16.17;89.83;99909.29;1708791;83;20148;-88
2021/09/16 02:27:50;;;;;;;;;;;;;;;16.20;89.87;99898.23;1711683;82;21024;-88
2021/09/16 02:30:16;;;;;;;;;;;;;;;16.20;90.08;99900.90;1704592;82;21076;-90
2021/09/16 02:32:41;;;;;;;;;;;;;;;16.09;90.29;99901.77;1712587;82;20145;-89
2021/09/16 02:35:10;;;;;;;;;;;;;;;16.12;90.41;99897.38;1702859;83;20252;-89
2021/09/16 02:37:35;;;;;;;;;;;;;;;16.15;90.35;99898.83;1708102;82;20195;-90
2021/09/16 02:40:01;;;;;;;;;;;;;;;16.19;90.18;99895.25;1706940;83;21609;-88
2021/09/16 02:42:28;;;;;;;;;;;;;;;16.18;90.32;99895.77;1711327;83;21190;-88
2021/09/16 02:44:55;;;;;;;;;;;;;;;16.21;90.36;99890.05;1709426;82;20222;-87
2021/09/16 02:47:21;;;;;;;;;;;;;;;16.20;90.51;99892.91;1700634;83;21079;-89
2021/09/16 02:49:47;;;;;;;;;;;;;;;16.26;90.24;99892.92;1705085;82;20149;-89
2021/09/16 02:52:14;;;;;;;;;;;;;;;16.27;90.17;99883.11;1704120;82;20141;-89
2021/09/16 02:54:40;;;;;;;;;;;;;;;16.27;90.25;99885.77;1707741;83;21122;-89
2021/09/16 02:57:05;;;;;;;;;;;;;;;16.33;90.06;99883.64;1706115;82;20309;-88
2021/09/16 02:59:31;;;;;;;;;;;;;;;16.37;90.03;99878.72;1703376;83;20154;-89
2021/09/16 03:01:58;;;;;;;;;;;;;;;16.39;89.74;99879.33;1710495;82;21194;-88
2021/09/16 03:04:27;;;;;;;;;;;;;;;16.38;89.81;99881.19;1713007;83;20179;-87
2021/09/16 03:06:53;;;;;;;;;;;;;;;16.40;89.65;99879.13;1710568;83;21265;-88
2021/09/16 03:09:19;;;;;;;;;;;;;;;16.35;89.79;99871.45;1709142;82;20204;-87
2021/09/16 03:11:46;;;;;;;;;;;;;;;16.38;89.84;99877.19;1709703;83;20763;-87
2021/09/16 03:14:13;;;;;;;;;;;;;;;16.42;89.55;99870.44;1707106;83;20232;-91
2021/09/16 03:16:38;;;;;;;;;;;;;;;16.45;89.31;99867.86;1711159;83;20186;-91
2021/09/16 03:19:05;;;;;;;;;;;;;;;16.46;89.40;99866.33;1713143;81;21294;-90
2021/09/16 03:21:31;;;;;;;;;;;;;;;16.46;89.18;99876.99;1708224;82;20126;-89
2021/09/16 03:23:56;;;;;;;;;;;;;;;16.45;89.37;99874.53;1708926;82;20838;-90
2021/09/16 03:26:25;;;;;;;;;;;;;;;16.43;89.61;99870.73;1705267;82;20131;-91
2021/09/16 03:28:51;;;;;;;;;;;;;;;16.46;89.40;99869.00;1708923;82;20132;-90
2021/09/16 03:31:16;;;;;;;;;;;;;;;16.45;89.23;99863.37;1707663;82;22650;-90
2021/09/16 03:33:42;;;;;;;;;;;;;;;16.49;89.10;99860.59;1684077;83;20502;-92
2021/09/16 03:36:09;;;;;;;;;;;;;;;16.50;89.22;99862.25;1704812;83;20147;-90
2021/09/16 03:38:36;;;;;;;;;;;;;;;16.51;89.07;99858.57;1708832;83;20157;-89
2021/09/16 03:41:03;;;;;;;;;;;;;;;16.51;89.07;99853.23;1714833;81;20226;-91
2021/09/16 03:43:28;;;;;;;;;;;;;;;16.56;88.98;99857.13;1709693;83;21956;-90
2021/09/16 03:45:54;;;;;;;;;;;;;;;16.54;88.96;99853.84;1707646;82;20146;-89
2021/09/16 03:48:20;;;;;;;;;;;;;;;16.55;88.94;99852.84;1707554;82;20141;-90
2021/09/16 03:50:45;;;;;;;;;;;;;;;16.56;88.88;99853.12;1706525;83;20737;-87
2021/09/16 03:53:11;;;;;;;;;;;;;;;16.55;88.82;99850.17;1698063;83;20131;-89
2021/09/16 03:55:36;;;;;;;;;;;;;;;16.55;88.85;99847.50;1705048;82;21080;-88
2021/09/16 03:58:02;;;;;;;;;;;;;;;16.55;88.90;99839.51;1703700;83;20171;-90
2021/09/16 04:00:27;;;;;;;;;;;;;;;16.55;88.91;99846.17;1706080;81;20230;-88
2021/09/16 04:02:53;;;;;;;;;;;;;;;16.60;88.72;99839.70;1709869;82;20143;-87
2021/09/16 04:05:19;;;;;;;;;;;;;;;16.62;88.63;99837.66;1713671;81;20698;-92
2021/09/16 04:07:44;;;;;;;;;;;;;;;16.64;88.36;99837.77;1704680;82;21120;-93
2021/09/16 04:10:13;;;;;;;;;;;;;;;16.65;88.21;99831.39;1703718;83;20189;-92
2021/09/16 04:12:40;;;;;;;;;;;;;;;16.67;88.24;99835.19;1702202;83;20203;-88
2021/09/16 04:15:06;;;;;;;;;;;;;;;16.64;88.35;99832.92;1709018;82;20205;-90
2021/09/16 04:17:32;;;;;;;;;;;;;;;16.65;88.32;99830.06;1706423;82;20255;-89
2021/09/16 04:19:58;;;;;;;;;;;;;;;16.64;88.38;99836.92;1692053;83;20903;-90
2021/09/16 04:22:23;;;;;;;;;;;;;;;16.64;88.28;99834.26;1710079;82;20201;-89
2021/09/16 04:24:49;;;;;;;;;;;;;;;16.60;88.74;99834.37;1712519;82;20187;-88
2021/09/16 04:27:14;;;;;;;;;;;;;;;16.54;88.86;99836.52;1716497;82;20132;-87
2021/09/16 04:29:41;;;;;;;;;;;;;;;16.54;89.13;99836.00;1701438;82;20129;-88
2021/09/16 04:32:07;;;;;;;;;;;;;;;16.56;89.09;99835.80;1718096;82;21208;-85
2021/09/16 04:34:33;;;;;;;;;;;;;;;16.56;89.28;99833.13;1721571;82;20143;-88
2021/09/16 04:36:58;;;;;;;;;;;;;;;16.58;89.31;99832.41;1684731;83;20549;-87
2021/09/16 04:39:26;;;;;;;;;;;;;;;16.53;89.53;99830.88;1716935;82;20132;-90
2021/09/16 04:41:52;;;;;;;;;;;;;;;16.50;89.71;99832.12;1716850;82;20290;-89
2021/09/16 04:44:19;;;;;;;;;;;;;;;16.55;89.69;99826.18;1720488;82;22084;-89
2021/09/16 04:46:47;;;;;;;;;;;;;;;16.57;89.46;99826.79;1721454;82;20152;-85
2021/09/16 04:49:15;;;;;;;;;;;;;;;16.60;89.59;99831.72;1719908;82;20193;-88
2021/09/16 04:51:41;;;;;;;;;;;;;;;16.59;89.48;99832.73;1720220;82;20193;-85
2021/09/16 04:54:07;;;;;;;;;;;;;;;16.59;89.83;99833.53;1722170;82;20168;-86
2021/09/16 04:56:35;;;;;;;;;;;;;;;16.61;89.83;99837.33;1719852;82;21185;-86
2021/09/16 04:59:02;;;;;;;;;;;;;;;16.62;90.47;99832.32;1723349;82;20791;-88
2021/09/16 05:01:27;;;;;;;;;;;;;;;16.66;91.06;99838.90;1720486;82;20261;-88
2021/09/16 05:03:56;;;;;;;;;;;;;;;16.69;91.04;99836.63;1715662;82;20140;-86
2021/09/16 05:06:25;;;;;;;;;;;;;;;16.67;91.40;99837.85;1709612;82;20193;-87
2021/09/16 05:08:53;;;;;;;;;;;;;;;16.66;91.83;99836.23;1714683;82;21231;-87
2021/09/16 05:11:21;;;;;;;;;;;;;;;16.68;92.40;99838.98;1720687;82;20197;-87
2021/09/16 05:13:48;;;;;;;;;;;;;;;16.73;92.69;99839.70;1718879;82;20130;-88
2021/09/16 05:16:14;;;;;;;;;;;;;;;16.73;92.81;99839.70;1717376;82;20224;-86
2021/09/16 05:18:40;;;;;;;;;;;;;;;16.73;93.22;99829.03;1716073;82;20129;-87
2021/09/16 05:21:06;;;;;;;;;;;;;;;16.72;93.71;99831.41;1716912;82;22401;-85
2021/09/16 05:23:37;;;;;;;;;;;;;;;16.75;93.73;99829.67;1719177;82;20114;-87
2021/09/16 05:26:03;;;;;;;;;;;;;;;16.80;94.00;99828.54;1718665;82;20190;-87
2021/09/16 05:28:31;;;;;;;;;;;;;;;16.89;93.25;99825.69;1716393;82;20196;-84
2021/09/16 05:30:58;;;;;;;;;;;;;;;16.92;93.33;99831.95;1717352;82;20186;-82
2021/09/16 05:33:24;;;;;;;;;;;;;;;16.95;92.93;99829.71;1710965;82;20965;-83
2021/09/16 05:35:49;;;;;;;;;;;;;;;16.99;92.61;99825.58;1718419;82;20184;-85
2021/09/16 05:38:16;;;;;;;;;;;;;;;17.02;92.70;99828.36;1720080;82;20166;-83
2021/09/16 05:40:42;;;;;;;;;;;;;;;17.02;93.32;99832.36;1718386;82;20174;-84
2021/09/16 05:43:09;;;;;;;;;;;;;;;17.02;93.69;99835.03;1719043;82;20206;-85
2021/09/16 05:45:36;;;;;;;;;;;;;;;17.07;93.47;99827.74;1719189;82;21948;-87
2021/09/16 05:48:04;;;;;;;;;;;;;;;17.09;93.24;99825.19;1720059;82;20499;-84
2021/09/16 05:50:30;;;;;;;;;;;;;;;17.12;93.33;99824.77;1721172;82;20220;-84
2021/09/16 05:52:56;;;;;;;;;;;;;;;17.14;93.37;99822.70;1716875;82;20109;-86
2021/09/16 05:55:22;;;;;;;;;;;;;;;17.16;93.04;99815.30;1715996;83;20180;-81
2021/09/16 05:57:48;;;;;;;;;;;;;;;17.18;92.99;99815.10;1722543;82;21135;-85
2021/09/16 06:00:17;;;;;;;;;;;;;;;17.21;92.63;99809.34;1716219;82;20190;-86
2021/09/16 06:02:43;;;;;;;;;;;;;;;17.22;92.61;99807.81;1728555;81;20162;-86
2021/09/16 06:05:12;;;;;;;;;;;;;;;17.18;92.46;99803.94;1719338;82;20204;-86
2021/09/16 06:07:40;;;;;;;;;;;;;;;17.25;92.32;99805.77;1719429;82;20195;-86
2021/09/16 06:10:09;;;;;;;;;;;;;;;17.19;92.33;99801.55;1722049;82;20530;-86
2021/09/16 06:12:35;;;;;;;;;;;;;;;17.26;92.42;99806.05;1717857;82;20146;-87
2021/09/16 06:15:05;;;;;;;;;;;;;;;17.31;92.35;99800.91;1720720;82;20197;-87
2021/09/16 06:17:34;;;;;;;;;;;;;;;17.34;92.38;99796.48;1714299;82;21469;-87
2021/09/16 06:20:00;;;;;;;;;;;;;;;17.36;92.27;99789.11;1716414;82;20181;-87
2021/09/16 06:22:26;;;;;;;;;;;;;;;17.38;92.73;99779.03;1714961;82;21807;-88
2021/09/16 06:24:53;;;;;;;;;;;;;;;17.39;93.00;99776.67;1710753;81;20190;-89
2021/09/16 06:27:19;;;;;;;;;;;;;;;17.46;92.90;99768.64;1707158;83;20135;-85
2021/09/16 06:29:45;;;;;;;;;;;;;;;17.48;92.71;99770.08;1705530;82;20434;-86
2021/09/16 06:32:10;;;;;;;;;;;;;;;17.54;92.57;99777.24;1705595;82;20909;-88
2021/09/16 06:34:38;;;;;;;;;;;;;;;17.61;92.36;99776.40;1709805;83;21089;-86
2021/09/16 06:37:05;;;;;;;;;;;;;;;17.63;92.38;99797.02;1708143;82;20251;-87
2021/09/16 06:39:34;;;;;;;;;;;;;;;17.66;92.65;99812.09;1704829;82;20153;-87
2021/09/16 06:42:02;;;;;;;;;;;;;;;17.67;92.77;99801.73;1711620;82;20211;-88
2021/09/16 06:44:29;;;;;;;;;;;;;;;17.74;92.87;99805.70;1706357;83;20506;-88
2021/09/16 06:46:57;;;;;;;;;;;;;;;17.75;93.36;99799.34;1714550;82;20458;-86
2021/09/16 06:49:23;;;;;;;;;;;;;;;17.83;93.15;99812.45;1705577;81;20376;-89
2021/09/16 06:51:49;;;;;;;;;;;;;;;17.86;92.84;99806.68;1708713;82;20120;-89
2021/09/16 06:54:17;;;;;;;;;;;;;;;17.85;92.42;99813.07;1709174;82;20192;-94
2021/09/16 06:56:44;;;;;;;;;;;;;;;17.86;92.68;99806.68;1717248;82;20568;-89
2021/09/16 06:59:15;;;;;;;;;;;;;;;17.84;91.95;99805.27;1695072;82;20569;-88
2021/09/16 07:01:41;;;;;;;;;;;;;;;17.90;92.39;99801.78;1709298;83;20328;-89
2021/09/16 07:04:07;;;;;;;;;;;;;;;17.90;91.90;99807.94;1704816;82;20206;-87
2021/09/16 07:06:35;;;;;;;;;;;;;;;17.93;92.11;99797.34;1711688;83;20145;-84
2021/09/16 07:09:03;;;;;;;;;;;;;;;17.99;92.12;99810.35;1712283;83;20202;-88
2021/09/16 07:11:35;;;;;;;;;;;;;;;18.00;91.52;99810.14;1714973;82;21101;-91
2021/09/16 07:14:01;;;;;;;;;;;;;;;17.99;91.49;99813.02;1707562;82;20562;-87
2021/09/16 07:16:28;;;;;;;;;;;;;;;17.94;91.94;99815.84;1713662;82;20169;-88
2021/09/16 07:18:53;;;;;;;;;;;;;;;17.89;91.84;99816.97;1711945;82;20230;-87
2021/09/16 07:21:19;;;;;;;;;;;;;;;17.96;91.95;99812.11;1713080;82;20201;-88
2021/09/16 07:23:45;;;;;;;;;;;;;;;17.96;91.57;99809.45;1693545;83;20984;-89
2021/09/16 07:26:10;;;;;;;;;;;;;;;17.98;91.61;99812.74;1705667;82;20181;-88
2021/09/16 07:28:37;;;;;;;;;;;;;;;18.02;91.60;99804.58;1710176;82;20126;-89
2021/09/16 07:31:04;;;;;;;;;;;;;;;18.08;92.23;99806.40;1706716;83;20250;-88
2021/09/16 07:33:29;;;;;;;;;;;;;;;18.11;92.10;99803.30;1712167;83;20128;-88
2021/09/16 07:35:55;;;;;;;;;;;;;;;18.13;92.00;99795.87;1709822;83;21108;-89
2021/09/16 07:38:21;;;;;;;;;;;;;;;18.13;91.83;99795.87;1706689;82;20290;-87
2021/09/16 07:40:46;;;;;;;;;;;;;;;18.17;91.63;99802.45;1708485;83;20161;-86
2021/09/16 07:43:12;;;;;;;;;;;;;;;18.23;91.29;99811.47;1709741;82;20172;-85
2021/09/16 07:45:38;;;;;;;;;;;;;;;18.28;91.25;99813.78;1708110;82;20341;-85
2021/09/16 07:48:03;;;;;;;;;;;;;;;18.29;91.53;99808.75;1716608;81;21131;-87
2021/09/16 07:50:30;;;;;;;;;;;;;;;18.36;91.71;99810.56;1690425;83;20207;-82
2021/09/16 07:52:56;;;;;;;;;;;;;;;18.42;91.09;99804.34;1700612;83;20157;-83
2021/09/16 07:55:21;;;;;;;;;;;;;;;18.52;91.02;99796.68;1708757;83;20152;-87
2021/09/16 07:57:47;;;;;;;;;;;;;;;18.56;91.24;99795.19;1710421;82;20454;-87
2021/09/16 08:00:16;;;;;;;;;;;;;;;18.65;90.94;99793.88;1704409;82;21289;-87
2021/09/16 08:02:49;;;;;;;;;;;;;;;18.83;90.78;99797.64;1706844;83;20151;-88
2021/09/16 08:05:14;;;;;;;;;;;;;;;18.89;89.94;99791.45;1714303;83;20120;-87
2021/09/16 08:07:40;;;;;;;;;;;;;;;18.97;89.72;99803.73;1708776;82;20164;-88
2021/09/16 08:10:08;;;;;;;;;;;;;;;19.02;89.82;99798.55;1711371;82;20162;-89
2021/09/16 08:12:33;;;;;;;;;;;;;;;19.10;89.31;99792.10;1714552;81;21058;-89
2021/09/16 08:14:59;;;;;;;;;;;;;;;19.19;88.97;99790.77;1710384;82;20132;-87
2021/09/16 08:17:25;;;;;;;;;;;;;;;19.26;87.99;99786.15;1710755;81;20220;-86
2021/09/16 08:19:52;;;;;;;;;;;;;;;19.30;88.17;99784.67;1702297;82;20147;-87
2021/09/16 08:22:20;;;;;;;;;;;;;;;19.39;87.99;99786.55;1707101;82;20170;-87
2021/09/16 08:24:45;;;;;;;;;;;;;;;19.44;87.27;99789.89;1705607;82;20152;-82
2021/09/16 08:27:13;;;;;;;;;;;;;;;19.45;87.17;99791.52;1707015;82;20153;-87
2021/09/16 08:29:38;;;;;;;;;;;;;;;19.47;87.06;99792.94;1714292;82;20202;-86
2021/09/16 08:32:05;;;;;;;;;;;;;;;19.51;86.95;99798.66;1711469;82;20184;-81
2021/09/16 08:34:30;;;;;;;;;;;;;;;19.51;87.29;99794.64;1715818;82;20197;-84
2021/09/16 08:36:56;;;;;;;;;;;;;;;19.50;87.38;99797.84;1711820;82;21109;-87
2021/09/16 08:39:23;;;;;;;;;;;;;;;19.49;87.95;99802.89;1702658;82;20124;-83
2021/09/16 08:41:49;;;;;;;;;;;;;;;19.53;87.65;99793.91;1711363;82;20079;-88
2021/09/16 08:44:18;;;;;;;;;;;;;;;19.62;87.77;99795.22;1707401;82;20217;-85
2021/09/16 08:46:47;;;;;;;;;;;;;;;19.69;87.47;99799.98;1717899;82;20246;-94
2021/09/16 08:49:16;;;;;;;;;;;;;;;19.69;87.64;99793.28;1713440;82;22096;-86
2021/09/16 08:51:45;;;;;;;;;;;;;;;19.77;87.72;99796.74;1705725;82;20138;-90
2021/09/16 08:54:10;;;;;;;;;;;;;;;19.91;87.44;99792.84;1678320;82;20166;-86
2021/09/16 08:56:39;;;;;;;;;;;;;;;19.96;87.17;99784.92;1715135;81;21404;-88
2021/09/16 08:59:05;;;;;;;;;;;;;;;20.02;87.11;99785.36;1714276;82;20157;-87
2021/09/16 09:01:31;;;;;;;;;;;;;;;20.13;86.98;99785.64;1707957;83;21474;-87
2021/09/16 09:03:56;;;;;;;;;;;;;;;20.19;86.47;99788.75;1710495;83;20887;-83
2021/09/16 09:06:37;;;;;;;;;;;;;;;20.20;86.08;99787.19;1712341;83;20161;-86
2021/09/16 09:09:19;;;;;;;;;;;;;;;20.17;86.29;99779.59;1706910;82;20170;-88
2021/09/16 09:12:03;;;;;;;;;;;;;;;20.19;85.98;99779.37;1710788;82;20222;-83
2021/09/16 09:14:31;;;;;;;;;;;;;;;20.39;85.90;99783.91;1695477;83;21269;-84
2021/09/16 09:16:59;;;;;;;;;;;;;;;20.37;86.40;99784.66;1686049;82;20171;-84
2021/09/16 09:19:26;;;;;;;;;;;;;;;20.35;86.20;99781.38;1708341;82;20180;-84
2021/09/16 09:21:52;;;;;;;;;;;;;;;20.33;86.48;99774.09;1703446;82;20223;-87
2021/09/16 09:24:29;;;;;;;;;;;;;;;20.45;86.34;99768.77;1702799;82;20095;-86
2021/09/16 09:26:54;;;;;;;;;;;;;;;20.45;86.13;99774.13;1709970;82;21189;-86
2021/09/16 09:29:21;;;;;;;;;;;;;;;20.56;86.35;99776.54;1711765;82;20108;-86
2021/09/16 09:32:01;;;;;;;;;;;;;;;20.68;85.52;99770.70;1712783;82;20209;-87
2021/09/16 09:34:31;;;;;;;;;;;;;;;20.76;85.31;99765.52;1709500;82;20177;-89
2021/09/16 09:37:18;;;;;;;;;;;;;;;20.83;85.07;99765.39;1709339;82;20921;-93
2021/09/16 09:39:53;;;;;;;;;;;;;;;20.86;85.17;99761.70;1715860;81;21236;-89
2021/09/16 09:42:35;;;;;;;;;;;;;;;20.91;84.83;99762.34;1711867;83;20127;-93
2021/09/16 09:45:06;;;;;;;;;;;;;;;20.94;84.42;99760.53;1709699;81;20181;-86
2021/09/16 09:47:38;;;;;;;;;;;;;;;20.98;84.18;99767.08;1707718;82;20640;-86
2021/09/16 09:50:05;;;;;;;;;;;;;;;21.04;84.38;99758.09;1706367;82;20613;-90
2021/09/16 09:52:31;;;;;;;;;;;;;;;21.10;84.25;99762.52;1714068;82;21331;-87
2021/09/16 09:54:57;;;;;;;;;;;;;;;21.10;83.77;99762.52;1713939;82;21843;-87
2021/09/16 09:57:23;;;;;;;;;;;;;;;21.07;83.78;99764.33;1710608;82;20220;-89
2021/09/16 10:00:04;;;;;;;;;;;;;;;21.07;83.63;99771.05;1710699;82;20217;-88
2021/09/16 10:02:36;;;;;;;;;;;;;;;21.11;83.48;99774.88;1704358;82;20214;-85
2021/09/16 10:05:04;;;;;;;;;;;;;;;21.09;83.61;99773.49;1711750;82;20321;-86
2021/09/16 10:07:32;;;;;;;;;;;;;;;21.05;84.00;99775.84;1685243;82;20426;-85
2021/09/16 10:10:01;;;;;;;;;;;;;;;21.07;84.34;99771.05;1710851;82;20123;-86
2021/09/16 10:12:28;;;;;;;;;;;;;;;21.04;85.42;99760.77;1708538;82;20124;-86
2021/09/16 10:14:53;;;;;;;;;;;;;;;21.06;85.64;99766.72;1710369;82;20174;-88
2021/09/16 10:17:19;;;;;;;;;;;;;;;21.11;85.52;99773.53;1709201;82;21136;-86
2021/09/16 10:19:47;;;;;;;;;;;;;;;21.19;85.52;99766.17;1715013;82;20143;-83
2021/09/16 10:22:12;;;;;;;;;;;;;;;21.29;85.66;99767.75;1708076;83;20540;-86
2021/09/16 10:24:38;;;;;;;;;;;;;;;21.22;85.49;99768.39;1706620;83;20129;-84
2021/09/16 10:27:25;;;;;;;;;;;;;;;21.24;85.52;99763.59;1710866;82;20169;-84
2021/09/16 10:29:50;;;;;;;;;;;;;;;21.28;85.17;99760.73;1710395;83;21133;-86
2021/09/16 10:32:29;;;;;;;;;;;;;;;21.33;84.92;99760.83;1687263;83;20116;-87
2021/09/16 10:34:56;;;;;;;;;;;;;;;21.29;84.64;99767.22;1712653;82;20128;-85
2021/09/16 10:37:23;;;;;;;;;;;;;;;21.28;84.75;99758.05;1706698;82;20186;-85
2021/09/16 10:39:49;;;;;;;;;;;;;;;21.28;84.88;99758.05;1684361;83;37634;-86
2021/09/16 10:42:17;;;;;;;;;;;;;;;21.36;84.73;99763.05;1713003;82;21227;-88
2021/09/16 10:44:44;;;;;;;;;;;;;;;21.43;84.84;99759.71;1708965;83;20183;-86
2021/09/16 10:47:23;;;;;;;;;;;;;;;21.46;84.19;99751.72;1711498;82;20237;-85
2021/09/16 10:49:51;;;;;;;;;;;;;;;21.54;84.08;99750.56;1707017;83;20227;-88
2021/09/16 10:52:23;;;;;;;;;;;;;;;21.64;84.22;99761.48;1713605;83;20174;-87
2021/09/16 10:54:52;;;;;;;;;;;;;;;21.57;84.76;99775.61;1714782;82;21039;-88
2021/09/16 10:57:35;;;;;;;;;;;;;;;21.66;84.35;99771.49;1714158;82;20231;-87
2021/09/16 11:00:07;;;;;;;;;;;;;;;21.77;84.30;99765.25;1708499;82;20201;-87
2021/09/16 11:02:47;;;;;;;;;;;;;;;21.81;84.58;99779.02;1713835;82;20172;-89
2021/09/16 11:05:14;;;;;;;;;;;;;;;21.87;83.56;99772.14;1712217;82;20249;-88
2021/09/16 11:07:49;;;;;;;;;;;;;;;21.97;83.64;99765.33;1711980;81;21066;-88
2021/09/16 11:10:19;;;;;;;;;;;;;;;22.02;83.39;99758.18;1705499;83;20129;-87
2021/09/16 11:12:49;;;;;;;;;;;;;;;22.03;83.44;99763.02;1706871;82;20977;-87
2021/09/16 11:15:28;;;;;;;;;;;;;;;22.13;83.26;99767.25;1684024;83;20187;-85
2021/09/16 11:18:13;;;;;;;;;;;;;;;22.15;83.41;99767.00;1703874;82;20209;-87
2021/09/16 11:20:41;;;;;;;;;;;;;;;21.94;83.36;99771.19;1705357;82;20647;-88
2021/09/16 11:23:06;;;;;;;;;;;;;;;21.81;84.25;99766.41;1702370;82;20154;-87
2021/09/16 11:25:36;;;;;;;;;;;;;;;21.93;83.93;99769.03;1702909;81;20193;-87
2021/09/16 11:28:07;;;;;;;;;;;;;;;21.98;83.80;99769.12;1703882;83;20206;-86
2021/09/16 11:30:34;;;;;;;;;;;;;;;22.05;83.52;99762.27;1698729;83;20219;-87
2021/09/16 11:33:04;;;;;;;;;;;;;;;22.12;83.34;99762.91;1700230;83;21073;-87
2021/09/16 11:35:29;;;;;;;;;;;;;;;22.12;83.39;99764.80;1704994;83;20159;-88
2021/09/16 11:37:55;;;;;;;;;;;;;;;22.16;83.07;99759.23;1703099;83;20428;-87
2021/09/16 11:40:24;;;;;;;;;;;;;;;22.20;82.85;99754.47;1703395;83;20219;-87
2021/09/16 11:42:51;;;;;;;;;;;;;;;22.16;83.40;99756.55;1702525;82;20169;-88
2021/09/16 11:45:18;;;;;;;;;;;;;;;22.17;83.70;99750.92;1713308;81;21261;-87
2021/09/16 11:47:56;;;;;;;;;;;;;;;22.31;83.08;99751.97;1704399;83;20228;-88
2021/09/16 11:50:36;;;;;;;;;;;;;;;22.42;82.31;99747.06;1701640;83;20170;-87
2021/09/16 11:53:08;;;;;;;;;;;;;;;22.38;82.28;99745.38;1707486;82;20184;-84
2021/09/16 11:55:35;;;;;;;;;;;;;;;22.51;82.40;99740.73;1700503;83;20194;-85
2021/09/16 11:58:15;;;;;;;;;;;;;;;22.59;82.59;99738.45;1708168;83;21257;-88
2021/09/16 12:00:47;;;;;;;;;;;;;;;22.67;81.82;99734.53;1699576;82;20154;-85
2021/09/16 12:03:15;;;;;;;;;;;;;;;22.75;81.23;99734.64;1705627;83;20207;-86
2021/09/16 12:05:44;;;;;;;;;;;;;;;22.78;81.29;99724.73;1703902;82;20261;-90
2021/09/16 12:08:11;;;;;;;;;;;;;;;22.86;81.06;99726.98;1704263;82;20238;-87
2021/09/16 12:10:42;;;;;;;;;;;;;;;22.97;80.88;99723.10;1705554;83;21069;-88
2021/09/16 12:13:09;;;;;;;;;;;;;;;23.00;80.28;99718.56;1703659;83;21014;-86
2021/09/16 12:15:36;;;;;;;;;;;;;;;23.09;79.67;99714.41;1706424;81;20199;-85
2021/09/16 12:18:04;;;;;;;;;;;;;;;23.07;79.90;99716.48;1706479;82;20224;-90
2021/09/16 12:20:32;;;;;;;;;;;;;;;23.14;79.62;99719.05;1704363;83;20233;-92
2021/09/16 12:22:57;;;;;;;;;;;;;;;23.22;79.51;99719.95;1682677;83;21327;-90
2021/09/16 12:25:26;;;;;;;;;;;;;;;23.27;79.47;99714.10;1707117;82;20223;-87
2021/09/16 12:28:06;;;;;;;;;;;;;;;23.31;79.02;99711.71;1711892;82;20488;-88
2021/09/16 12:30:38;;;;;;;;;;;;;;;23.39;79.42;99707.76;1707410;81;20246;-86
2021/09/16 12:33:36;;;;;;;;;;;;;;;23.51;79.28;99708.44;1708555;82;20135;-85
2021/09/16 12:36:17;;;;;;;;;;;;;;;23.59;78.76;99703.94;1712123;82;21070;-87
2021/09/16 12:38:48;;;;;;;;;;;;;;;23.72;78.79;99703.26;1713966;82;20499;-84
2021/09/16 12:41:29;;;;;;;;;;;;;;;23.67;78.49;99701.32;1706361;82;20147;-89
2021/09/16 12:43:57;;;;;;;;;;;;;;;23.77;78.28;99705.99;1712561;82;20135;-87
2021/09/16 12:46:26;;;;;;;;;;;;;;;23.88;78.29;99705.08;1713612;82;20285;-89
2021/09/16 12:48:51;;;;;;;;;;;;;;;23.98;77.99;99703.00;1711706;82;20856;-87